Time;durP1;ratioP1;P1;durP2;ratioP2;P2;SDS_P1;SDS_P2;PMS_P1;PMS_P2;Temp;Humidity;BMP_temperature;BMP_pressure;BME280_temperature;BME280_humidity;BME280_pressure;Samples;Min_cycle;Max_cycle;Signal;HPM_P1;HPM_P2
2022/09/11 00:00:52;;;;;;;;;;;15.80;97.40;;;;;;5029522;28;19920;-70
2022/09/11 00:03:20;;;;;;;;;;;16.00;98.00;;;;;;5031318;28;19909;-67
2022/09/11 00:05:47;;;;;;;;;;;16.10;96.90;;;;;;5030888;28;19916;-68
2022/09/11 00:08:18;;;;;;;;;;;16.10;97.20;;;;;;5063138;28;19913;-69
2022/09/11 00:10:47;;;;;;;;;;;16.20;97.00;;;;;;5030261;28;20440;-68
2022/09/11 00:13:15;;;;;;;;;;;16.20;97.80;;;;;;5031224;28;19917;-69
2022/09/11 00:15:45;;;;;;;;;;;16.10;97.50;;;;;;5030945;28;20389;-67
2022/09/11 00:18:13;;;;;;;;;;;16.20;97.50;;;;;;5031151;28;19917;-68
2022/09/11 00:20:48;;;;;;;;;;;16.30;97.30;;;;;;5030496;28;19920;-67
2022/09/11 00:23:16;;;;;;;;;;;16.50;97.10;;;;;;5031046;28;19978;-67
2022/09/11 00:25:45;;;;;;;;;;;16.50;97.50;;;;;;5028981;28;20287;-68
2022/09/11 00:28:16;;;;;;;;;;;16.60;97.30;;;;;;5030968;28;19913;-68
2022/09/11 00:30:43;;;;;;;;;;;16.60;96.30;;;;;;5030514;28;19915;-68
2022/09/11 00:33:11;;;;;;;;;;;16.50;97.10;;;;;;5030652;28;20379;-67
2022/09/11 00:35:38;;;;;;;;;;;16.50;96.30;;;;;;5030096;28;19913;-69
2022/09/11 00:38:07;;;;;;;;;;;16.60;96.80;;;;;;5030740;28;19939;-68
2022/09/11 00:40:46;;;;;;;;;;;16.70;95.80;;;;;;5029752;28;19921;-67
2022/09/11 00:43:16;;;;;;;;;;;16.70;95.50;;;;;;5029866;28;19916;-70
2022/09/11 00:45:45;;;;;;;;;;;16.70;96.00;;;;;;5030548;28;19909;-67
2022/09/11 00:48:14;;;;;;;;;;;16.70;96.20;;;;;;5030496;28;20451;-67
2022/09/11 00:50:42;;;;;;;;;;;16.80;96.20;;;;;;5030115;28;19913;-67
2022/09/11 00:53:10;;;;;;;;;;;16.80;96.90;;;;;;5030321;28;19917;-68
2022/09/11 00:55:37;;;;;;;;;;;16.90;97.30;;;;;;5029709;28;20325;-69
2022/09/11 00:58:10;;;;;;;;;;;17.00;96.60;;;;;;5030460;28;19913;-68
2022/09/11 01:00:38;;;;;;;;;;;17.00;97.30;;;;;;5029989;28;19972;-67
2022/09/11 01:03:05;;;;;;;;;;;17.00;96.30;;;;;;5030457;28;20487;-69
2022/09/11 01:05:33;;;;;;;;;;;17.10;96.90;;;;;;5030402;28;20358;-68
2022/09/11 01:08:01;;;;;;;;;;;17.20;96.70;;;;;;5030313;28;19954;-66
2022/09/11 01:10:41;;;;;;;;;;;17.30;96.70;;;;;;5029607;28;19925;-68
2022/09/11 01:13:24;;;;;;;;;;;17.50;95.00;;;;;;5030020;28;19931;-69
2022/09/11 01:16:02;;;;;;;;;;;17.70;94.70;;;;;;5029959;28;19962;-67
2022/09/11 01:18:31;;;;;;;;;;;18.00;94.30;;;;;;5030292;28;19970;-66
2022/09/11 01:21:07;;;;;;;;;;;18.00;93.90;;;;;;5029709;28;20003;-66
2022/09/11 01:23:33;;;;;;;;;;;18.30;94.30;;;;;;5029534;28;19952;-66
2022/09/11 01:26:06;;;;;;;;;;;18.50;93.60;;;;;;5030043;28;20014;-67
2022/09/11 01:28:39;;;;;;;;;;;18.50;93.00;;;;;;5030062;28;19909;-68
2022/09/11 01:31:08;;;;;;;;;;;18.50;93.70;;;;;;5029396;28;19913;-68
2022/09/11 01:33:43;;;;;;;;;;;18.40;93.70;;;;;;5029485;28;19936;-68
2022/09/11 01:36:14;;;;;;;;;;;18.30;92.60;;;;;;5029563;28;20299;-68
2022/09/11 01:38:45;;;;;;;;;;;18.30;92.50;;;;;;5029201;28;20398;-66
2022/09/11 01:41:29;;;;;;;;;;;18.10;92.40;;;;;;5029354;28;20423;-66
2022/09/11 01:44:01;;;;;;;;;;;17.90;93.40;;;;;;5029415;28;19913;-67
2022/09/11 01:46:28;;;;;;;;;;;18.00;93.00;;;;;;5029378;28;19909;-67
2022/09/11 01:49:03;;;;;;;;;;;18.00;93.40;;;;;;5029376;28;19981;-66
2022/09/11 01:51:31;;;;;;;;;;;18.00;93.40;;;;;;5029118;28;19909;-67
2022/09/11 01:53:59;;;;;;;;;;;18.00;93.60;;;;;;5028553;28;19929;-67
2022/09/11 01:56:35;;;;;;;;;;;17.90;93.20;;;;;;5029485;28;19910;-67
2022/09/11 01:59:06;;;;;;;;;;;17.80;92.80;;;;;;5029274;28;19921;-68
2022/09/11 02:01:34;;;;;;;;;;;17.80;91.70;;;;;;5029035;28;20383;-67
2022/09/11 02:04:15;;;;;;;;;;;17.90;91.40;;;;;;5029334;28;19917;-68
2022/09/11 02:07:04;;;;;;;;;;;18.10;91.30;;;;;;5029411;28;19921;-67
2022/09/11 02:09:32;;;;;;;;;;;18.20;91.30;;;;;;5028802;28;19928;-68
2022/09/11 02:15:02;;;;;;;;;;;18.30;90.10;;;;;;5029297;28;19959;-67
2022/09/11 02:17:35;;;;;;;;;;;18.20;90.20;;;;;;5029220;28;19921;-69
2022/09/11 02:20:03;;;;;;;;;;;18.20;91.20;;;;;;5028968;28;19921;-69
2022/09/11 02:22:29;;;;;;;;;;;18.20;91.40;;;;;;5028883;28;19910;-67
2022/09/11 02:24:56;;;;;;;;;;;18.20;91.70;;;;;;5029361;28;19909;-67
2022/09/11 02:27:24;;;;;;;;;;;18.20;90.80;;;;;;5029222;28;19920;-68
2022/09/11 02:29:52;;;;;;;;;;;18.20;91.10;;;;;;5028966;28;19913;-70
2022/09/11 02:32:20;;;;;;;;;;;18.10;90.90;;;;;;5028645;28;19962;-69
2022/09/11 02:34:47;;;;;;;;;;;18.10;90.90;;;;;;5028827;28;20291;-68
2022/09/11 02:37:14;;;;;;;;;;;18.20;90.60;;;;;;5028932;28;20007;-68
2022/09/11 02:39:49;;;;;;;;;;;18.40;90.40;;;;;;5028801;28;20060;-69
2022/09/11 02:42:21;;;;;;;;;;;18.40;90.00;;;;;;5028493;28;19919;-68
2022/09/11 02:44:56;;;;;;;;;;;18.30;90.20;;;;;;5028806;28;19979;-69
2022/09/11 02:47:23;;;;;;;;;;;18.30;90.00;;;;;;5028727;28;19959;-67
2022/09/11 02:49:50;;;;;;;;;;;18.30;90.30;;;;;;5028491;28;19958;-70
2022/09/11 02:52:19;;;;;;;;;;;18.30;90.10;;;;;;5028417;28;19917;-68
2022/09/11 02:54:57;;;;;;;;;;;18.30;90.70;;;;;;5028661;28;19921;-67
2022/09/11 02:57:42;;;;;;;;;;;18.30;90.40;;;;;;5028747;28;19939;-67
2022/09/11 03:00:09;;;;;;;;;;;18.30;89.90;;;;;;5028377;28;20351;-67
2022/09/11 03:02:41;;;;;;;;;;;18.20;90.00;;;;;;5028716;28;19923;-67
2022/09/11 03:05:09;;;;;;;;;;;18.10;90.20;;;;;;5029145;28;20004;-67
2022/09/11 03:07:36;;;;;;;;;;;18.20;89.70;;;;;;5031724;28;19913;-68
2022/09/11 03:10:02;;;;;;;;;;;18.30;90.80;;;;;;5031519;28;20329;-68
2022/09/11 03:12:29;;;;;;;;;;;18.30;87.80;;;;;;5031907;28;19950;-67
2022/09/11 03:14:59;;;;;;;;;;;18.40;88.70;;;;;;5032042;28;20003;-68
2022/09/11 03:17:25;;;;;;;;;;;18.50;88.80;;;;;;5031762;28;19924;-67
2022/09/11 03:19:52;;;;;;;;;;;18.60;88.40;;;;;;5031507;28;19913;-70
2022/09/11 03:22:19;;;;;;;;;;;18.60;88.50;;;;;;5031587;28;19954;-68
2022/09/11 03:24:46;;;;;;;;;;;18.60;88.50;;;;;;5031951;28;19975;-68
2022/09/11 03:27:13;;;;;;;;;;;18.60;87.90;;;;;;5031962;28;19992;-68
2022/09/11 03:29:40;;;;;;;;;;;18.50;89.10;;;;;;5031699;28;19956;-67
2022/09/11 03:32:08;;;;;;;;;;;18.60;88.80;;;;;;5031442;28;19909;-67
2022/09/11 03:34:35;;;;;;;;;;;18.60;87.80;;;;;;5031570;28;19957;-67
2022/09/11 03:37:01;;;;;;;;;;;18.60;85.60;;;;;;5031548;28;19920;-68
2022/09/11 03:39:28;;;;;;;;;;;18.80;85.20;;;;;;5031669;28;19957;-69
2022/09/11 03:41:55;;;;;;;;;;;18.80;85.90;;;;;;5031010;28;20004;-67
2022/09/11 03:44:22;;;;;;;;;;;18.80;86.40;;;;;;5031653;28;19971;-68
2022/09/11 03:46:48;;;;;;;;;;;18.70;85.20;;;;;;5031544;28;19920;-68
2022/09/11 03:49:15;;;;;;;;;;;18.80;85.10;;;;;;5031347;28;20026;-68
2022/09/11 03:51:42;;;;;;;;;;;18.80;85.10;;;;;;5030834;28;20651;-66
2022/09/11 03:54:08;;;;;;;;;;;18.70;86.20;;;;;;5031379;28;20023;-68
2022/09/11 03:56:36;;;;;;;;;;;18.60;87.80;;;;;;5031423;28;19920;-67
2022/09/11 03:59:02;;;;;;;;;;;18.60;85.50;;;;;;5031384;28;19913;-68
2022/09/11 04:01:29;;;;;;;;;;;18.60;85.80;;;;;;5031119;28;19909;-69
2022/09/11 04:03:56;;;;;;;;;;;18.70;87.40;;;;;;5030876;28;19924;-68
2022/09/11 04:06:22;;;;;;;;;;;18.80;86.40;;;;;;5031252;28;19951;-66
2022/09/11 04:08:49;;;;;;;;;;;18.80;89.10;;;;;;5030998;28;19913;-67
2022/09/11 04:11:15;;;;;;;;;;;18.70;88.80;;;;;;5030879;28;19964;-67
2022/09/11 04:13:42;;;;;;;;;;;18.70;86.60;;;;;;5030961;28;20290;-68
2022/09/11 04:16:13;;;;;;;;;;;18.70;86.30;;;;;;5030435;28;19909;-68
2022/09/11 04:18:44;;;;;;;;;;;18.70;88.80;;;;;;5030405;28;19963;-67
2022/09/11 04:21:23;;;;;;;;;;;18.70;88.80;;;;;;5031018;28;19922;-67
2022/09/11 04:23:54;;;;;;;;;;;18.70;87.80;;;;;;5030908;28;19916;-69
2022/09/11 04:26:22;;;;;;;;;;;18.60;87.70;;;;;;5031119;28;19944;-68
2022/09/11 04:28:49;;;;;;;;;;;18.60;88.00;;;;;;5030897;28;19909;-67
2022/09/11 04:31:16;;;;;;;;;;;18.70;88.10;;;;;;5030579;28;19913;-68
2022/09/11 04:33:44;;;;;;;;;;;18.70;86.30;;;;;;5030321;28;20421;-67
2022/09/11 04:36:18;;;;;;;;;;;18.80;88.00;;;;;;5030800;28;19962;-66
2022/09/11 04:38:45;;;;;;;;;;;18.70;87.30;;;;;;5030807;28;19913;-66
2022/09/11 04:41:12;;;;;;;;;;;18.80;86.80;;;;;;5030464;28;19912;-67
2022/09/11 04:43:39;;;;;;;;;;;18.80;87.90;;;;;;5030383;28;19978;-65
2022/09/11 04:46:11;;;;;;;;;;;18.80;87.30;;;;;;5030499;28;19913;-67
2022/09/11 04:48:47;;;;;;;;;;;18.70;87.80;;;;;;5030423;28;19909;-66
2022/09/11 04:51:20;;;;;;;;;;;18.80;88.40;;;;;;5030297;28;19999;-67
2022/09/11 04:53:47;;;;;;;;;;;18.80;88.90;;;;;;5030294;28;20294;-67
2022/09/11 04:56:13;;;;;;;;;;;18.80;88.40;;;;;;5030171;28;19917;-67
2022/09/11 04:58:41;;;;;;;;;;;18.70;88.80;;;;;;5030271;28;19909;-67
2022/09/11 05:01:15;;;;;;;;;;;18.70;90.10;;;;;;5030171;28;20015;-67
2022/09/11 05:03:45;;;;;;;;;;;18.70;88.50;;;;;;5029930;28;19961;-67
2022/09/11 05:06:15;;;;;;;;;;;18.70;89.80;;;;;;5030376;28;20398;-67
2022/09/11 05:08:46;;;;;;;;;;;18.80;88.60;;;;;;5030202;28;19909;-67
2022/09/11 05:11:13;;;;;;;;;;;19.00;88.50;;;;;;5030024;28;19913;-67
2022/09/11 05:13:40;;;;;;;;;;;19.20;88.30;;;;;;5029848;28;19972;-67
2022/09/11 05:16:08;;;;;;;;;;;19.10;88.10;;;;;;5030168;28;19932;-67
2022/09/11 05:18:35;;;;;;;;;;;19.00;90.10;;;;;;5029918;28;20433;-67
2022/09/11 05:21:04;;;;;;;;;;;19.00;89.70;;;;;;5029690;28;19918;-66
2022/09/11 05:23:31;;;;;;;;;;;18.90;90.20;;;;;;5030125;28;19914;-68
2022/09/11 05:25:58;;;;;;;;;;;18.90;90.00;;;;;;5029783;28;19916;-67
2022/09/11 05:28:26;;;;;;;;;;;18.90;92.40;;;;;;5029400;28;19953;-67
2022/09/11 05:30:53;;;;;;;;;;;18.80;93.80;;;;;;5029662;28;19913;-67
2022/09/11 05:33:22;;;;;;;;;;;18.70;95.10;;;;;;5029752;28;19941;-67
2022/09/11 05:35:52;;;;;;;;;;;18.50;96.00;;;;;;5029745;28;19913;-67
2022/09/11 05:38:20;;;;;;;;;;;18.50;96.30;;;;;;5029891;28;19916;-68
2022/09/11 05:40:48;;;;;;;;;;;18.40;96.50;;;;;;5029514;28;20378;-67
2022/09/11 05:43:15;;;;;;;;;;;18.30;96.30;;;;;;5029797;28;19921;-67
2022/09/11 05:45:43;;;;;;;;;;;18.20;96.60;;;;;;5029575;28;20359;-68
2022/09/11 05:48:09;;;;;;;;;;;18.10;96.40;;;;;;5029436;28;19909;-67
2022/09/11 05:50:36;;;;;;;;;;;18.00;96.50;;;;;;5029499;28;20371;-67
2022/09/11 05:53:04;;;;;;;;;;;18.00;96.60;;;;;;5029730;28;19967;-67
2022/09/11 05:55:37;;;;;;;;;;;17.90;96.80;;;;;;5029717;28;19913;-67
2022/09/11 05:58:03;;;;;;;;;;;17.90;96.80;;;;;;5029585;28;19996;-66
2022/09/11 06:00:30;;;;;;;;;;;17.90;96.90;;;;;;5029056;28;19913;-67
2022/09/11 06:02:57;;;;;;;;;;;17.90;96.60;;;;;;5029338;28;19932;-66
2022/09/11 06:05:24;;;;;;;;;;;17.80;96.40;;;;;;5029471;28;19917;-66
2022/09/11 06:07:51;;;;;;;;;;;17.80;96.90;;;;;;5029179;28;19992;-66
2022/09/11 06:10:17;;;;;;;;;;;17.80;97.10;;;;;;5028865;28;19960;-66
2022/09/11 06:12:44;;;;;;;;;;;17.80;97.30;;;;;;5029366;28;20378;-65
2022/09/11 06:15:10;;;;;;;;;;;17.80;97.20;;;;;;5029328;28;19920;-66
2022/09/11 06:17:37;;;;;;;;;;;17.70;97.60;;;;;;5028926;28;19962;-65
2022/09/11 06:20:04;;;;;;;;;;;17.70;97.90;;;;;;5028998;28;19909;-66
2022/09/11 06:22:32;;;;;;;;;;;17.70;98.00;;;;;;5029313;28;19913;-67
2022/09/11 06:24:59;;;;;;;;;;;17.60;98.00;;;;;;5029147;28;20386;-65
2022/09/11 06:27:25;;;;;;;;;;;17.50;98.10;;;;;;5029170;28;20275;-68
2022/09/11 06:29:52;;;;;;;;;;;17.50;98.00;;;;;;5028623;28;19920;-66
2022/09/11 06:32:18;;;;;;;;;;;17.50;98.20;;;;;;5028707;28;19920;-66
2022/09/11 06:34:45;;;;;;;;;;;17.40;98.40;;;;;;5028914;28;20260;-66
2022/09/11 06:37:12;;;;;;;;;;;17.40;98.40;;;;;;5028769;28;19916;-68
2022/09/11 06:39:39;;;;;;;;;;;17.40;98.50;;;;;;5027590;28;20003;-67
2022/09/11 06:42:07;;;;;;;;;;;17.30;98.60;;;;;;5028970;28;20280;-67
2022/09/11 06:44:34;;;;;;;;;;;17.30;98.80;;;;;;5027552;28;20257;-67
2022/09/11 06:47:00;;;;;;;;;;;17.20;98.90;;;;;;5028887;28;19917;-66
2022/09/11 06:49:27;;;;;;;;;;;17.30;99.00;;;;;;5028731;28;19920;-67
2022/09/11 06:51:53;;;;;;;;;;;17.20;99.40;;;;;;5028374;28;20269;-66
2022/09/11 06:54:20;;;;;;;;;;;17.20;99.90;;;;;;5028775;28;20012;-66
2022/09/11 06:56:47;;;;;;;;;;;17.20;99.50;;;;;;5028709;28;19913;-67
2022/09/11 06:59:14;;;;;;;;;;;17.20;99.70;;;;;;5028756;28;19946;-68
2022/09/11 07:01:42;;;;;;;;;;;17.10;99.90;;;;;;5028083;28;19913;-66
2022/09/11 07:04:09;;;;;;;;;;;17.10;99.90;;;;;;5028516;28;19920;-66
2022/09/11 07:06:37;;;;;;;;;;;17.00;99.90;;;;;;5028638;28;19913;-67
2022/09/11 07:09:04;;;;;;;;;;;17.00;99.90;;;;;;5028397;28;20012;-68
2022/09/11 07:11:31;;;;;;;;;;;17.00;99.90;;;;;;5028292;28;19913;-67
2022/09/11 07:13:59;;;;;;;;;;;17.00;99.90;;;;;;5028176;28;20436;-67
2022/09/11 07:16:26;;;;;;;;;;;17.00;99.90;;;;;;5028400;28;20287;-66
2022/09/11 07:18:53;;;;;;;;;;;17.00;99.90;;;;;;5028310;28;19944;-66
2022/09/11 07:21:21;;;;;;;;;;;17.00;99.90;;;;;;5028012;28;19913;-67
2022/09/11 07:23:49;;;;;;;;;;;16.90;99.90;;;;;;5028151;28;19962;-67
2022/09/11 07:26:17;;;;;;;;;;;16.90;99.90;;;;;;5028357;28;19916;-67
2022/09/11 07:28:44;;;;;;;;;;;16.90;99.90;;;;;;5028373;28;19910;-69
2022/09/11 07:31:19;;;;;;;;;;;16.90;99.90;;;;;;5028232;28;20384;-67
2022/09/11 07:33:49;;;;;;;;;;;16.80;99.90;;;;;;5027693;28;20291;-66
2022/09/11 07:36:20;;;;;;;;;;;16.80;99.90;;;;;;5059976;28;20008;-67
2022/09/11 07:38:47;;;;;;;;;;;16.80;99.90;;;;;;5028320;28;19913;-66
2022/09/11 07:41:15;;;;;;;;;;;16.70;99.90;;;;;;5028209;28;20066;-66
2022/09/11 07:43:45;;;;;;;;;;;16.70;99.90;;;;;;5028090;28;19955;-67
2022/09/11 07:46:12;;;;;;;;;;;16.70;99.90;;;;;;5028106;28;19962;-67
2022/09/11 07:48:39;;;;;;;;;;;16.60;99.90;;;;;;5026051;28;19920;-67
2022/09/11 07:51:07;;;;;;;;;;;16.60;99.90;;;;;;5026579;28;20379;-66
2022/09/11 07:53:36;;;;;;;;;;;16.60;99.90;;;;;;5061359;28;19932;-66
2022/09/11 07:56:08;;;;;;;;;;;16.50;99.90;;;;;;5011967;28;19920;-66
2022/09/11 07:58:36;;;;;;;;;;;16.50;99.90;;;;;;5009755;28;19913;-66
2022/09/11 08:01:07;;;;;;;;;;;16.50;99.90;;;;;;5009039;28;19920;-68
2022/09/11 08:03:36;;;;;;;;;;;16.50;99.90;;;;;;5009294;28;19909;-66
2022/09/11 08:06:10;;;;;;;;;;;16.40;99.90;;;;;;5009491;28;19910;-68
2022/09/11 08:08:37;;;;;;;;;;;16.40;99.90;;;;;;5009328;28;19936;-67
2022/09/11 08:11:05;;;;;;;;;;;16.40;99.90;;;;;;5009001;28;19925;-66
2022/09/11 08:13:32;;;;;;;;;;;16.30;99.90;;;;;;5009352;28;20020;-67
2022/09/11 08:15:59;;;;;;;;;;;16.40;99.90;;;;;;5009110;28;19916;-69
2022/09/11 08:18:26;;;;;;;;;;;16.30;99.90;;;;;;5009286;28;20352;-66
2022/09/11 08:20:53;;;;;;;;;;;16.30;99.90;;;;;;5008582;28;20306;-66
2022/09/11 08:23:22;;;;;;;;;;;16.20;99.90;;;;;;5009128;28;19940;-66
2022/09/11 08:25:49;;;;;;;;;;;16.20;99.90;;;;;;5009650;28;19914;-67
2022/09/11 08:28:16;;;;;;;;;;;16.20;99.90;;;;;;5009096;28;19941;-67
2022/09/11 08:30:43;;;;;;;;;;;16.20;99.90;;;;;;5008866;28;20000;-66
2022/09/11 08:33:11;;;;;;;;;;;16.20;99.90;;;;;;5008892;28;19922;-67
2022/09/11 08:35:37;;;;;;;;;;;16.10;99.90;;;;;;5008768;28;20644;-67
2022/09/11 08:38:04;;;;;;;;;;;16.10;99.90;;;;;;5008698;28;20253;-66
2022/09/11 08:40:36;;;;;;;;;;;16.00;99.90;;;;;;5008726;28;19932;-67
2022/09/11 08:43:03;;;;;;;;;;;16.00;99.90;;;;;;5008997;28;19945;-68
2022/09/11 08:45:34;;;;;;;;;;;16.00;99.90;;;;;;5009029;28;19964;-67
2022/09/11 08:48:01;;;;;;;;;;;16.00;99.90;;;;;;5039718;28;19929;-66
2022/09/11 08:50:48;;;;;;;;;;;15.90;99.90;;;;;;5008580;28;20364;-68
2022/09/11 08:53:16;;;;;;;;;;;15.90;99.90;;;;;;5009128;28;19917;-67
2022/09/11 08:55:44;;;;;;;;;;;15.90;99.90;;;;;;5008396;28;20332;-67
2022/09/11 08:58:20;;;;;;;;;;;15.80;99.90;;;;;;5008360;28;19928;-67
2022/09/11 09:01:07;;;;;;;;;;;15.80;99.90;;;;;;5008372;28;19914;-67
2022/09/11 09:03:56;;;;;;;;;;;15.80;99.90;;;;;;5007675;28;19910;-66
2022/09/11 09:06:25;;;;;;;;;;;15.70;99.90;;;;;;5010126;28;19948;-67
2022/09/11 09:08:59;;;;;;;;;;;15.60;99.90;;;;;;5010470;28;19909;-66
2022/09/11 09:11:29;;;;;;;;;;;15.60;99.90;;;;;;5010193;28;20441;-67
2022/09/11 09:13:55;;;;;;;;;;;15.50;99.90;;;;;;5010192;28;20012;-67
2022/09/11 09:16:44;;;;;;;;;;;15.50;99.90;;;;;;5010295;28;19914;-66
2022/09/11 09:19:14;;;;;;;;;;;15.60;99.90;;;;;;5010501;28;19916;-67
2022/09/11 09:21:57;;;;;;;;;;;15.60;99.90;;;;;;5009278;28;20352;-66
2022/09/11 09:24:27;;;;;;;;;;;15.60;99.90;;;;;;5010267;28;20362;-68
2022/09/11 09:26:55;;;;;;;;;;;15.60;99.90;;;;;;5010216;28;20299;-67
2022/09/11 09:29:35;;;;;;;;;;;15.60;99.90;;;;;;5010268;28;19913;-67
2022/09/11 09:32:10;;;;;;;;;;;15.60;99.90;;;;;;5010155;28;19917;-67
2022/09/11 09:34:38;;;;;;;;;;;15.60;99.90;;;;;;5010246;28;20213;-68
2022/09/11 09:37:11;;;;;;;;;;;15.60;99.90;;;;;;5009615;28;19946;-66
2022/09/11 09:39:37;;;;;;;;;;;15.70;99.90;;;;;;5009707;28;19916;-66
2022/09/11 09:42:22;;;;;;;;;;;15.80;99.90;;;;;;5010127;28;19913;-67
2022/09/11 09:45:07;;;;;;;;;;;15.80;99.90;;;;;;5008763;28;20237;-65
2022/09/11 09:47:36;;;;;;;;;;;15.90;99.90;;;;;;5009900;28;19933;-66
2022/09/11 09:50:02;;;;;;;;;;;15.90;99.90;;;;;;5009177;28;19913;-66
2022/09/11 09:52:34;;;;;;;;;;;15.90;99.90;;;;;;5009987;28;20264;-66
2022/09/11 09:55:02;;;;;;;;;;;15.80;99.90;;;;;;5009811;28;19914;-66
2022/09/11 09:57:34;;;;;;;;;;;15.80;99.70;;;;;;5009997;28;19960;-66
2022/09/11 10:00:06;;;;;;;;;;;15.80;99.50;;;;;;5009755;28;19909;-68
2022/09/11 10:02:55;;;;;;;;;;;15.80;99.70;;;;;;5009475;28;19914;-67
2022/09/11 10:05:24;;;;;;;;;;;15.80;99.90;;;;;;5009306;28;19913;-67
2022/09/11 10:07:53;;;;;;;;;;;15.70;99.90;;;;;;5009526;28;19909;-66
2022/09/11 10:10:22;;;;;;;;;;;15.70;99.90;;;;;;5008908;28;19922;-66
2022/09/11 10:12:49;;;;;;;;;;;15.70;99.90;;;;;;5009481;28;19922;-66
2022/09/11 10:15:21;;;;;;;;;;;15.70;99.90;;;;;;5009370;28;20409;-66
2022/09/11 10:17:49;;;;;;;;;;;15.60;99.90;;;;;;5009177;28;19914;-67
2022/09/11 10:20:17;;;;;;;;;;;15.60;99.90;;;;;;5008827;28;19958;-67
2022/09/11 10:22:44;;;;;;;;;;;15.60;99.90;;;;;;5009395;28;19910;-67
2022/09/11 10:25:13;;;;;;;;;;;15.60;99.90;;;;;;5009269;28;19913;-67
2022/09/11 10:27:51;;;;;;;;;;;15.60;99.90;;;;;;5009533;28;20253;-66
2022/09/11 10:30:35;;;;;;;;;;;15.60;99.90;;;;;;5009058;28;19910;-66
2022/09/11 10:33:04;;;;;;;;;;;15.60;99.90;;;;;;5008934;28;19965;-67
2022/09/11 10:35:31;;;;;;;;;;;15.50;99.90;;;;;;5008553;28;20361;-67
2022/09/11 10:38:17;;;;;;;;;;;15.40;99.90;;;;;;5009056;28;20433;-67
2022/09/11 10:40:56;;;;;;;;;;;15.40;99.90;;;;;;5008949;28;20002;-68
2022/09/11 10:43:25;;;;;;;;;;;15.40;99.90;;;;;;5009340;28;19918;-67
2022/09/11 10:46:02;;;;;;;;;;;15.40;99.90;;;;;;5008942;28;19913;-67
2022/09/11 10:48:29;;;;;;;;;;;15.40;99.90;;;;;;5009251;28;19913;-68
2022/09/11 10:51:09;;;;;;;;;;;15.40;99.90;;;;;;5008251;28;19914;-68
2022/09/11 10:53:47;;;;;;;;;;;15.30;99.90;;;;;;5008304;28;20344;-67
2022/09/11 10:56:14;;;;;;;;;;;15.30;99.90;;;;;;5009304;28;19914;-66
2022/09/11 10:58:42;;;;;;;;;;;15.30;99.90;;;;;;5008945;28;20291;-67
2022/09/11 11:01:09;;;;;;;;;;;15.20;99.90;;;;;;5008655;28;19913;-67
2022/09/11 11:03:35;;;;;;;;;;;15.20;99.90;;;;;;5008732;28;19948;-66
2022/09/11 11:06:08;;;;;;;;;;;15.20;99.90;;;;;;5007486;28;19965;-66
2022/09/11 11:08:46;;;;;;;;;;;15.10;99.90;;;;;;5008916;28;20364;-67
2022/09/11 11:11:13;;;;;;;;;;;15.10;99.90;;;;;;5008724;28;19929;-65
2022/09/11 11:13:46;;;;;;;;;;;15.10;99.90;;;;;;5008687;28;19971;-66
2022/09/11 11:16:31;;;;;;;;;;;15.00;99.90;;;;;;5007548;28;19909;-67
2022/09/11 11:18:58;;;;;;;;;;;14.90;99.90;;;;;;5008759;28;19909;-69
2022/09/11 11:21:37;;;;;;;;;;;14.90;99.90;;;;;;5008331;28;19934;-67
2022/09/11 11:24:14;;;;;;;;;;;14.80;99.90;;;;;;5008843;28;20008;-67
2022/09/11 11:26:54;;;;;;;;;;;14.80;99.70;;;;;;5010142;28;19909;-66
2022/09/11 11:29:21;;;;;;;;;;;14.80;99.90;;;;;;5011890;28;19910;-66
2022/09/11 11:32:04;;;;;;;;;;;14.80;99.90;;;;;;5011590;28;19913;-66
2022/09/11 11:34:33;;;;;;;;;;;14.70;99.90;;;;;;5012026;28;19917;-66
2022/09/11 11:37:11;;;;;;;;;;;14.70;99.90;;;;;;5012027;28;19914;-66
2022/09/11 11:39:44;;;;;;;;;;;14.60;99.80;;;;;;5011626;28;19917;-67
2022/09/11 11:42:17;;;;;;;;;;;14.60;99.90;;;;;;5011712;28;19910;-66
2022/09/11 11:44:47;;;;;;;;;;;14.60;99.90;;;;;;5011871;28;19910;-67
2022/09/11 11:47:15;;;;;;;;;;;14.50;99.90;;;;;;5016805;28;20359;-67
2022/09/11 11:49:56;;;;;;;;;;;14.50;99.90;;;;;;5011339;28;19953;-66
2022/09/11 11:52:22;;;;;;;;;;;14.50;99.90;;;;;;5011536;28;19943;-67
2022/09/11 11:55:01;;;;;;;;;;;14.40;99.90;;;;;;5012138;28;20275;-66
2022/09/11 11:57:32;;;;;;;;;;;14.30;99.90;;;;;;5011755;28;19913;-67
2022/09/11 12:00:03;;;;;;;;;;;14.40;99.90;;;;;;5011038;28;19910;-66
2022/09/11 12:02:33;;;;;;;;;;;14.30;99.80;;;;;;5011585;28;19909;-67
2022/09/11 12:05:00;;;;;;;;;;;14.30;99.90;;;;;;5011725;28;19910;-66
2022/09/11 12:07:32;;;;;;;;;;;14.30;99.90;;;;;;5011619;28;20341;-67
2022/09/11 12:10:02;;;;;;;;;;;14.20;99.90;;;;;;5021734;28;19973;-67
2022/09/11 12:12:31;;;;;;;;;;;14.20;99.90;;;;;;5025385;28;19913;-67
2022/09/11 12:15:05;;;;;;;;;;;14.20;99.50;;;;;;5015177;28;19909;-66
2022/09/11 12:17:37;;;;;;;;;;;14.20;99.70;;;;;;5070353;27;19921;-68
2022/09/11 12:20:10;;;;;;;;;;;14.10;99.90;;;;;;5038170;27;19920;-68
2022/09/11 12:22:44;;;;;;;;;;;14.10;99.70;;;;;;5031214;28;19909;-66
2022/09/11 12:25:22;;;;;;;;;;;14.10;99.50;;;;;;5031166;28;19940;-66
2022/09/11 12:28:08;;;;;;;;;;;14.00;99.60;;;;;;5027266;28;19913;-66
2022/09/11 12:30:55;;;;;;;;;;;13.90;99.80;;;;;;5019055;28;20020;-66
2022/09/11 12:33:39;;;;;;;;;;;13.90;99.90;;;;;;5020938;28;19917;-67
2022/09/11 12:36:17;;;;;;;;;;;13.90;99.90;;;;;;5025826;28;19924;-68
2022/09/11 12:38:47;;;;;;;;;;;13.90;99.90;;;;;;5023936;28;19913;-67
2022/09/11 12:41:16;;;;;;;;;;;13.80;99.90;;;;;;5030686;28;19913;-67
2022/09/11 12:43:45;;;;;;;;;;;13.80;99.90;;;;;;5028748;28;20004;-68
2022/09/11 12:46:33;;;;;;;;;;;13.80;99.90;;;;;;5030575;28;20002;-67
2022/09/11 12:49:06;;;;;;;;;;;13.80;99.90;;;;;;5016188;28;19932;-67
2022/09/11 12:51:49;;;;;;;;;;;13.80;99.90;;;;;;5030624;28;19909;-68
2022/09/11 12:54:17;;;;;;;;;;;13.70;99.90;;;;;;5030010;28;20293;-66
2022/09/11 12:56:48;;;;;;;;;;;13.70;99.90;;;;;;5030612;28;19936;-67
2022/09/11 12:59:45;;;;;;;;;;;13.70;99.90;;;;;;5014271;28;19917;-67
2022/09/11 13:02:38;;;;;;;;;;;13.60;99.90;;;;;;5001262;28;19909;-67
2022/09/11 13:05:06;;;;;;;;;;;13.50;99.90;;;;;;5008641;28;20043;-67
2022/09/11 13:07:41;;;;;;;;;;;13.50;99.90;;;;;;5010747;28;19916;-67
2022/09/11 13:10:10;;;;;;;;;;;13.60;99.90;;;;;;5010299;28;20386;-66
2022/09/11 13:12:45;;;;;;;;;;;13.50;99.90;;;;;;5010266;28;20017;-67
2022/09/11 13:15:30;;;;;;;;;;;13.50;99.90;;;;;;5009826;28;20054;-67
2022/09/11 13:17:57;;;;;;;;;;;13.40;99.90;;;;;;5010448;28;19915;-66
2022/09/11 13:20:24;;;;;;;;;;;13.40;99.90;;;;;;5010376;28;19918;-66
2022/09/11 13:22:51;;;;;;;;;;;13.40;99.90;;;;;;5010508;28;19910;-66
2022/09/11 13:25:22;;;;;;;;;;;13.30;99.90;;;;;;5010632;28;19913;-66
2022/09/11 13:27:50;;;;;;;;;;;13.30;99.90;;;;;;5010248;28;19921;-67
2022/09/11 13:30:20;;;;;;;;;;;13.30;99.90;;;;;;5009767;28;20380;-67
2022/09/11 13:32:48;;;;;;;;;;;13.30;99.90;;;;;;5010417;28;19917;-66
2022/09/11 13:35:23;;;;;;;;;;;13.30;99.90;;;;;;5010400;28;19910;-67
2022/09/11 13:37:49;;;;;;;;;;;13.30;99.90;;;;;;5009997;28;19918;-66
2022/09/11 13:40:21;;;;;;;;;;;13.20;99.90;;;;;;5009890;28;20377;-66
2022/09/11 13:42:48;;;;;;;;;;;13.20;99.90;;;;;;5010120;28;19917;-67
2022/09/11 13:45:16;;;;;;;;;;;13.10;99.90;;;;;;5010084;28;20505;-67
2022/09/11 13:47:43;;;;;;;;;;;13.00;99.90;;;;;;5009883;28;20391;-66
2022/09/11 13:50:11;;;;;;;;;;;13.00;99.90;;;;;;5009051;28;19914;-69
2022/09/11 13:52:39;;;;;;;;;;;13.00;99.90;;;;;;5009983;28;19929;-66
2022/09/11 13:55:17;;;;;;;;;;;13.00;99.90;;;;;;5009675;28;20437;-67
2022/09/11 13:58:04;;;;;;;;;;;12.90;99.90;;;;;;5009704;28;19920;-66
2022/09/11 14:00:38;;;;;;;;;;;12.90;99.90;;;;;;5009519;28;20008;-66
2022/09/11 14:03:06;;;;;;;;;;;12.80;99.90;;;;;;5010015;28;19921;-67
2022/09/11 14:05:35;;;;;;;;;;;12.80;99.90;;;;;;5009920;28;19910;-67
2022/09/11 14:08:34;;;;;;;;;;;12.80;99.90;;;;;;5009861;28;20674;-66
2022/09/11 14:11:03;;;;;;;;;;;12.80;99.90;;;;;;5052709;28;19970;-66
2022/09/11 14:13:33;;;;;;;;;;;12.70;99.90;;;;;;5009738;28;20368;-67
2022/09/11 14:15:59;;;;;;;;;;;12.80;99.90;;;;;;5009645;28;19914;-66
2022/09/11 14:18:35;;;;;;;;;;;12.70;99.90;;;;;;5009680;28;19913;-67
2022/09/11 14:21:04;;;;;;;;;;;12.70;99.90;;;;;;5009353;28;19909;-66
2022/09/11 14:23:31;;;;;;;;;;;12.70;99.90;;;;;;5009683;28;20333;-66
2022/09/11 14:26:10;;;;;;;;;;;12.60;99.90;;;;;;5009599;28;19909;-67
2022/09/11 14:28:47;;;;;;;;;;;12.60;99.90;;;;;;5009644;28;19958;-67
2022/09/11 14:31:26;;;;;;;;;;;12.60;99.90;;;;;;5009111;28;19910;-67
2022/09/11 14:34:14;;;;;;;;;;;12.60;99.90;;;;;;5009235;28;19948;-67
2022/09/11 14:36:53;;;;;;;;;;;12.60;99.90;;;;;;5009595;28;19909;-67
2022/09/11 14:39:19;;;;;;;;;;;12.50;99.90;;;;;;5009195;28;19909;-68